Página principal
METAR-TAF:

METAR-TAF

Aeroportos :

São Martinho, Antilhas Neerlandesas

Aeroporto Internacional Princesa Juliana

latitude: 18-03N, longitude: 063-07W, altura: 4 m

Observação actual do tempo

O boletim foi feito há 6 horas e 42 minutos, às 02:00 UTC
Vento 8 kt de es-nordeste
Temperatura 25°C
Humidade 79%
Pressão 1018 hPa
Visibilidade 10 km ou mais
Poucas nuvensa uma altura de 1800 ft

METAR: TNCM 200200Z 07008KT 9999 FEW018 25/21 Q1018 RMK A3007

Hora: 04:42 (08:42 UTC)

Previsão

O boletim foi feito há 3 horas e 22 minutos, às 05:20 UTC
Previsão válida de 20 às 06 UTC a 21 às 06 UTC
Vento 8 kt de es-nordeste
Visibilidade: 10 km
Poucas nuvensa uma altura de 1800 ft
A partir de 20 às 1400 UTC
Vento 14 kt de este
Visibilidade: 10 km
Nuvens dispersasa uma altura de 2200 ft
A partir de 20 às 2200 UTC
Vento 10 kt de este
Visibilidade: 10 km
Poucas nuvensa uma altura de 3000 ft

TAF: TNCM 200520Z 2006/2106 07008KT P6SM FEW018 FM201400 10014KT P6SM SCT022 FM202200 08010KT P6SM FEW030

Observações e previsões do tempo de mais de 4000 aeroportos (mensagens METAR e TAF).

As estações disponíveis são os pontos amarelos e vermelhos sobre o mapa.

Mova o rato sobre o mapa para ver o nome da estação.

Depois clique no ponto para visualizar as observações e previsões meteorológicas.

Para alterar o mapa : clique nos botões verdes com uma cruz preta para aumentar o zoom; no botão verde com uma pitada de zoom; ou nas setas verdes para mapas adjacentes.


METAR-TAF: